.
WxDataArchive / Data Records for 2012-02-01
2012-01-31 February 2012 2012-02-02

Data Records for Wednesday, 01 February 2012

Time	Temp	Chill	HIndex	Humid	Dewpt	 Wind 	HiWind	WindDir	Rain 	Barom 
-----	----	-----	------	-----	-----	------	------	-------	-----	----- 
00:00	52.6	52.6	52.6	84	47.9	1	5	225	0.00	29.857 
00:05	52.8	52.8	52.8	85	48.4	2	6	225	0.02	29.857 
00:10	52.5	52.5	52.5	87	48.7	2	9	248	0.00	29.857 
00:15	52.3	52.3	52.3	88	48.9	2	5	225	0.00	29.861 
00:20	52.2	52.2	52.2	88	48.8	2	5	225	0.00	29.861 
00:25	52.2	52.2	52.2	89	49.1	2	5	248	0.00	29.861 
00:30	52.2	52.2	52.2	89	49.1	2	6	248	0.00	29.866 
00:35	52.0	52.0	52.0	90	49.2	1	5	248	0.00	29.866 
00:40	52.0	52.0	52.0	90	49.2	1	4	248	0.00	29.866 
00:45	52.2	52.2	52.2	90	49.4	2	7	248	0.00	29.863 
00:50	52.3	52.3	52.3	90	49.5	2	5	248	0.00	29.863 
00:55	52.3	52.3	52.3	90	49.5	2	5	248	0.00	29.863 
01:00	52.5	52.5	52.5	90	49.7	1	5	248	0.00	29.869 
01:05	52.5	52.5	52.5	90	49.7	1	4	248	0.00	29.869 
01:10	52.5	52.5	52.5	90	49.7	1	4	248	0.00	29.869 
01:15	52.5	52.5	52.5	90	49.7	1	3	248	0.00	29.871 
01:20	52.6	52.6	52.6	91	50.0	3	5	270	0.01	29.871 
01:25	52.8	52.8	52.8	91	50.2	2	4	248	0.00	29.871 
01:30	52.8	52.8	52.8	92	50.5	2	5	248	0.00	29.871 
01:35	52.8	52.8	52.8	92	50.5	2	5	248	0.00	29.871 
01:40	52.8	52.8	52.8	92	50.5	2	7	248	0.00	29.871 
01:45	52.8	52.8	52.8	92	50.5	2	5	248	0.00	29.873 
01:50	52.8	52.8	52.8	92	50.5	2	5	270	0.00	29.873 
01:55	52.8	52.8	52.8	92	50.5	2	5	248	0.01	29.873 
02:00	52.8	52.8	52.8	92	50.5	1	4	248	0.00	29.873 
02:05	52.6	52.6	52.6	92	50.3	1	5	248	0.00	29.873 
02:10	52.6	52.6	52.6	92	50.3	1	6	248	0.00	29.873 
02:15	52.6	52.6	52.6	92	50.3	2	7	248	0.00	29.877 
02:20	52.6	52.6	52.6	92	50.3	2	6	248	0.00	29.877 
02:25	52.8	52.8	52.8	92	50.5	3	7	270	0.00	29.877 
02:30	52.8	52.8	52.8	92	50.5	2	4	270	0.00	29.883 
02:35	52.6	52.6	52.6	92	50.3	2	4	248	0.00	29.883 
02:40	52.6	52.6	52.6	92	50.3	1	3	248	0.00	29.883 
02:45	52.5	52.5	52.5	92	50.2	2	4	248	0.00	29.885 
02:50	52.5	52.5	52.5	92	50.2	1	4	248	0.00	29.885 
02:55	52.5	52.5	52.5	92	50.2	1	4	248	0.00	29.885 
03:00	52.3	52.3	52.3	92	50.0	1	3	248	0.00	29.889 
03:05	52.3	52.3	52.3	92	50.0	1	3	248	0.00	29.889 
03:10	52.2	52.2	52.2	92	49.9	1	4	248	0.00	29.889 
03:15	52.0	52.0	52.0	92	49.7	2	4	270	0.00	29.893 
03:20	51.9	51.9	51.9	92	49.6	2	4	270	0.00	29.893 
03:25	51.7	51.7	51.7	91	49.2	2	3	248	0.00	29.893 
03:30	51.6	51.6	51.6	92	49.4	1	3	248	0.00	29.895 
03:35	51.3	51.3	51.3	91	48.8	1	4	248	0.00	29.895 
03:40	51.3	51.3	51.3	91	48.8	2	5	248	0.00	29.895 
03:45	51.1	51.1	51.1	91	48.6	2	5	248	0.00	29.901 
03:50	51.1	51.1	51.1	90	48.3	3	5	292	0.00	29.901 
03:55	51.3	51.3	51.3	90	48.5	2	4	248	0.00	29.901 
04:00	51.1	51.1	51.1	89	48.0	2	4	270	0.00	29.902 
04:05	51.0	51.0	51.0	88	47.6	2	4	248	0.00	29.902 
04:10	50.8	50.8	50.8	88	47.4	2	4	248	0.00	29.902 
04:15	50.5	50.5	50.5	87	46.8	2	5	248	0.00	29.903 
04:20	50.4	50.4	50.4	87	46.7	1	6	248	0.00	29.903 
04:25	50.2	50.2	50.2	87	46.5	1	5	270	0.00	29.903 
04:30	49.9	49.9	49.9	87	46.2	1	3	270	0.00	29.911 
04:35	49.8	49.8	49.8	87	46.1	1	2	270	0.00	29.911 
04:40	49.5	49.5	49.5	88	46.1	1	3	270	0.00	29.911 
04:45	49.2	49.2	49.2	88	45.8	1	2	270	0.00	29.920 
04:50	48.9	48.9	48.9	88	45.5	1	3	270	0.00	29.920 
04:55	48.8	48.8	48.8	88	45.4	0	2	270	0.00	29.920 
05:00	48.6	48.6	48.6	88	45.2	1	3	270	0.00	29.923 
05:05	48.3	48.3	48.3	89	45.2	1	2	270	0.00	29.923 
05:10	48.2	48.2	48.2	89	45.1	1	3	270	0.00	29.923 
05:15	48.0	48.0	48.0	89	44.9	1	3	270	0.00	29.930 
05:20	47.9	47.9	47.9	89	44.8	1	3	270	0.00	29.930 
05:25	47.7	47.7	47.7	89	44.6	1	3	270	0.00	29.930 
05:30	47.7	47.7	47.7	89	44.6	1	3	270	0.00	29.938 
05:35	47.4	47.4	47.4	88	44.0	1	4	270	0.00	29.938 
05:40	47.4	47.4	47.4	88	44.0	2	3	270	0.00	29.938 
05:45	47.1	47.1	47.1	87	43.4	1	3	270	0.00	29.941 
05:50	47.0	47.0	47.0	87	43.3	1	4	270	0.00	29.941 
05:55	46.7	46.7	46.7	87	43.0	1	2	248	0.00	29.941 
06:00	46.4	46.4	46.4	87	42.7	1	3	248	0.00	29.943 
06:05	46.2	46.2	46.2	87	42.5	1	3	248	0.00	29.943 
06:10	46.1	46.1	46.1	87	42.4	1	2	248	0.00	29.943 
06:15	46.0	46.0	46.0	87	42.4	0	2	248	0.00	29.949 
06:20	46.0	46.0	46.0	87	42.4	1	3	248	0.00	29.949 
06:25	45.8	45.8	45.8	87	42.2	2	3	248	0.00	29.949 
06:30	45.8	45.8	45.8	87	42.2	2	4	248	0.00	29.960 
06:35	45.7	45.7	45.7	87	42.1	1	2	248	0.00	29.960 
06:40	45.5	45.5	45.5	87	41.9	1	3	248	0.00	29.960 
06:45	45.4	45.4	45.4	87	41.8	1	3	248	0.00	29.968 
06:50	45.1	45.1	45.1	88	41.8	1	3	248	0.00	29.968 
06:55	44.9	44.9	44.9	88	41.6	1	3	248	0.00	29.968 
07:00	44.8	44.8	44.8	88	41.5	1	3	248	0.00	29.977 
07:05	44.8	44.8	44.8	88	41.5	1	3	248	0.00	29.977 
07:10	44.6	44.6	44.6	88	41.3	0	2	248	0.00	29.977 
07:15	44.3	44.3	44.3	87	40.7	2	4	248	0.00	29.994 
07:20	44.1	44.1	44.1	85	39.9	2	4	338	0.00	29.994 
07:25	43.8	43.8	43.8	83	39.0	1	4	248	0.00	29.994 
07:30	43.5	43.5	43.5	82	38.4	1	3	248	0.00	30.008 
07:35	43.1	43.1	43.1	81	37.7	1	3	248	0.00	30.008 
07:40	42.8	42.8	42.8	81	37.4	1	3	0	0.00	30.008 
07:45	42.6	42.6	42.6	81	37.2	1	2	248	0.00	30.013 
07:50	42.3	42.3	42.3	81	36.9	1	2	248	0.00	30.013 
07:55	42.2	42.2	42.2	81	36.8	1	3	248	0.00	30.013 
08:00	41.9	41.9	41.9	81	36.5	0	1	248	0.00	30.024 
08:05	41.8	41.8	41.8	81	36.4	0	1	248	0.00	30.024 
08:10	41.5	41.5	41.5	82	36.4	0	1	248	0.00	30.024 
08:15	41.3	41.3	41.3	82	36.2	0	2	248	0.00	30.026 
08:20	41.3	41.3	41.3	83	36.5	0	2	248	0.00	30.026 
08:25	41.3	41.3	41.3	83	36.5	0	1	248	0.00	30.026 
08:30	41.3	41.3	41.3	84	36.8	0	1	248	0.00	30.034 
08:35	41.3	41.3	41.3	84	36.8	1	3	248	0.00	30.034 
08:40	41.5	41.5	41.5	84	37.0	1	3	248	0.00	30.034 
08:45	41.6	41.6	41.6	83	36.8	2	4	270	0.00	30.036 
08:50	41.8	41.8	41.8	83	37.0	2	4	315	0.00	30.036 
08:55	41.9	41.9	41.9	82	36.8	1	3	292	0.00	30.036 
09:00	42.1	42.1	42.1	82	37.0	1	3	292	0.00	30.042 
09:05	42.2	42.2	42.2	81	36.8	0	2	292	0.00	30.042 
09:10	42.3	42.3	42.3	81	36.9	1	3	292	0.00	30.042 
09:15	42.3	42.3	42.3	81	36.9	1	2	315	0.00	30.045 
09:20	42.5	42.5	42.5	81	37.1	1	3	315	0.00	30.045 
09:25	42.6	42.6	42.6	80	36.9	1	3	315	0.00	30.045 
09:30	42.8	42.8	42.8	80	37.1	2	4	292	0.00	30.045 
09:35	42.9	42.9	42.9	80	37.2	1	2	292	0.00	30.045 
09:40	43.1	43.1	43.1	79	37.0	2	3	292	0.00	30.045 
09:45	43.2	43.2	43.2	79	37.1	2	3	292	0.00	30.053 
09:50	43.3	43.3	43.3	79	37.2	1	3	315	0.00	30.053 
09:55	43.3	43.3	43.3	78	36.9	1	3	315	0.00	30.053 
10:00	43.5	43.5	43.5	78	37.1	1	2	315	0.00	30.055 
10:05	43.8	43.8	43.8	78	37.4	0	2	315	0.00	30.055 
10:10	43.9	43.9	43.9	78	37.5	1	2	315	0.00	30.055 
10:15	43.9	43.9	43.9	77	37.2	1	3	0	0.00	30.055 
10:20	44.1	44.1	44.1	77	37.4	1	3	338	0.00	30.055 
10:25	44.1	44.1	44.1	77	37.4	1	3	338	0.00	30.055 
10:30	44.2	44.2	44.2	77	37.5	1	4	338	0.00	30.057 
10:35	44.3	44.3	44.3	77	37.6	1	3	315	0.00	30.057 
10:40	44.3	44.3	44.3	76	37.2	1	2	315	0.00	30.057 
10:45	44.2	44.2	44.2	76	37.1	1	3	315	0.00	30.059 
10:50	44.3	44.3	44.3	77	37.6	1	3	315	0.00	30.059 
10:55	44.3	44.3	44.3	77	37.6	1	3	338	0.00	30.059 
11:00	44.5	44.5	44.5	76	37.4	1	3	248	0.00	30.063 
11:05	44.3	44.3	44.3	76	37.2	1	3	0	0.00	30.063 
11:10	44.3	44.3	44.3	77	37.6	1	3	0	0.00	30.063 
11:15	44.6	44.6	44.6	77	37.8	0	2	270	0.00	30.070 
11:20	44.6	44.6	44.6	76	37.5	1	3	270	0.00	30.070 
11:25	44.6	44.6	44.6	76	37.5	1	4	270	0.00	30.070 
11:30	44.6	44.6	44.6	76	37.5	0	2	0	0.00	30.072 
11:35	44.9	44.9	44.9	76	37.8	1	3	270	0.00	30.072 
11:40	45.1	45.1	45.1	76	38.0	1	3	270	0.00	30.072 
11:45	45.4	45.4	45.4	77	38.6	1	2	270	0.00	30.072 
11:50	45.5	45.5	45.5	75	38.0	1	3	315	0.00	30.072 
11:55	45.5	45.5	45.5	75	38.0	1	2	315	0.00	30.072 
12:00	45.1	45.1	45.1	74	37.3	1	3	338	0.00	30.076 
12:05	44.9	44.9	44.9	75	37.5	1	2	338	0.00	30.076 
12:10	44.9	44.9	44.9	75	37.5	1	3	338	0.00	30.076 
12:15	44.8	44.8	44.8	75	37.4	0	2	338	0.00	30.080 
12:20	44.9	44.9	44.9	76	37.8	1	3	315	0.00	30.080 
12:25	44.6	44.6	44.6	76	37.5	1	3	338	0.00	30.080 
12:30	44.6	44.6	44.6	76	37.5	1	3	248	0.00	30.081 
12:35	44.5	44.5	44.5	76	37.4	1	3	270	0.00	30.081 
12:40	44.6	44.6	44.6	76	37.5	2	4	270	0.00	30.081 
12:45	44.6	44.6	44.6	76	37.5	2	4	315	0.00	30.074 
12:50	44.3	44.3	44.3	76	37.2	1	3	338	0.00	30.074 
12:55	44.3	44.3	44.3	76	37.2	1	4	270	0.00	30.074 
13:00	44.5	44.5	44.5	77	37.7	2	4	270	0.00	30.071 
13:05	44.3	44.3	44.3	77	37.6	1	4	338	0.00	30.071 
13:10	44.3	44.3	44.3	76	37.2	1	5	338	0.00	30.071 
13:15	44.2	44.2	44.2	77	37.5	1	3	338	0.00	30.072 
13:20	44.2	44.2	44.2	77	37.5	1	3	338	0.00	30.072 
13:25	44.1	44.1	44.1	76	37.0	1	3	248	0.00	30.072 
13:30	43.9	43.9	43.9	77	37.2	1	4	248	0.00	30.072 
13:35	43.8	43.8	43.8	76	36.7	1	4	338	0.00	30.072 
13:40	43.5	43.5	43.5	77	36.8	2	3	315	0.00	30.072 
13:45	43.3	43.3	43.3	77	36.6	1	3	338	0.00	30.070 
13:50	43.6	43.6	43.6	78	37.2	1	3	248	0.00	30.070 
13:55	43.9	43.9	43.9	77	37.2	1	4	248	0.00	30.070 
14:00	43.8	43.8	43.8	76	36.7	2	4	248	0.00	30.066 
14:05	43.6	43.6	43.6	77	36.9	1	4	248	0.00	30.066 
14:10	43.5	43.5	43.5	77	36.8	1	4	338	0.00	30.066 
14:15	43.6	43.6	43.6	78	37.2	1	3	338	0.00	30.063 
14:20	43.8	43.8	43.8	78	37.4	1	3	338	0.00	30.063 
14:25	43.5	43.5	43.5	77	36.8	1	2	338	0.00	30.063 
14:30	43.3	43.3	43.3	78	36.9	2	3	315	0.00	30.060 
14:35	43.8	43.8	43.8	78	37.4	1	3	315	0.00	30.060 
14:40	43.8	43.8	43.8	77	37.1	1	3	315	0.00	30.060 
14:45	43.5	43.5	43.5	77	36.8	1	3	45	0.00	30.060 
14:50	43.2	43.2	43.2	77	36.5	1	5	270	0.00	30.060 
14:55	43.1	43.1	43.1	77	36.4	1	4	270	0.00	30.060 
15:00	43.1	43.1	43.1	77	36.4	1	3	0	0.00	30.062 
15:05	43.1	43.1	43.1	77	36.4	0	3	315	0.00	30.062 
15:10	43.6	43.6	43.6	78	37.2	1	3	315	0.00	30.062 
15:15	44.1	44.1	44.1	77	37.4	1	4	292	0.00	30.063 
15:20	43.9	43.9	43.9	76	36.8	1	3	292	0.00	30.063 
15:25	43.8	43.8	43.8	75	36.4	1	3	292	0.00	30.063 
15:30	43.8	43.8	43.8	76	36.7	0	2	292	0.00	30.064 
15:35	43.8	43.8	43.8	75	36.4	1	4	270	0.00	30.064 
15:40	43.9	43.9	43.9	76	36.8	0	2	270	0.00	30.064 
15:45	44.1	44.1	44.1	75	36.7	1	2	270	0.00	30.070 
15:50	44.1	44.1	44.1	75	36.7	1	2	270	0.00	30.070 
15:55	43.9	43.9	43.9	75	36.5	0	3	270	0.00	30.070 
16:00	44.1	44.1	44.1	76	37.0	1	3	270	0.00	30.071 
16:05	44.2	44.2	44.2	75	36.8	1	3	45	0.00	30.071 
16:10	44.1	44.1	44.1	75	36.7	1	3	68	0.00	30.071 
16:15	44.1	44.1	44.1	75	36.7	0	2	292	0.00	30.077 
16:20	43.9	43.9	43.9	74	36.2	1	3	292	0.00	30.077 
16:25	43.6	43.6	43.6	74	35.9	1	3	292	0.00	30.077 
16:30	43.3	43.3	43.3	75	35.9	0	2	292	0.00	30.081 
16:35	43.2	43.2	43.2	75	35.8	0	2	292	0.00	30.081 
16:40	43.2	43.2	43.2	76	36.2	0	1	292	0.00	30.081 
16:45	43.1	43.1	43.1	76	36.1	0	2	292	0.00	30.090 
16:50	42.9	42.9	42.9	77	36.2	0	1	292	0.00	30.090 
16:55	42.6	42.6	42.6	76	35.6	1	3	292	0.00	30.090 
17:00	42.5	42.5	42.5	77	35.8	0	2	292	0.00	30.094 
17:05	42.3	42.3	42.3	77	35.6	0	3	292	0.00	30.094 
17:10	42.2	42.2	42.2	77	35.5	0	2	292	0.00	30.094 
17:15	42.1	42.1	42.1	77	35.4	0	2	292	0.00	30.106 
17:20	41.9	41.9	41.9	77	35.2	0	1	292	0.00	30.106 
17:25	41.8	41.8	41.8	77	35.1	0	2	292	0.00	30.106 
17:30	41.5	41.5	41.5	78	35.2	0	1	292	0.00	30.105 
17:35	41.3	41.3	41.3	78	35.0	0	2	292	0.00	30.105 
17:40	41.3	41.3	41.3	79	35.3	0	1	292	0.00	30.105 
17:45	41.2	41.2	41.2	79	35.2	0	0	---	0.00	30.114 
17:50	41.2	41.2	41.2	79	35.2	0	2	292	0.00	30.114 
17:55	41.2	41.2	41.2	79	35.2	0	1	292	0.00	30.114 
18:00	41.2	41.2	41.2	79	35.2	0	1	292	0.00	30.113 
18:05	41.2	41.2	41.2	79	35.2	0	1	292	0.00	30.113 
18:10	41.1	41.1	41.1	79	35.1	0	2	292	0.00	30.113 
18:15	41.1	41.1	41.1	79	35.1	0	1	292	0.00	30.113 
18:20	40.9	40.9	40.9	79	34.9	0	1	292	0.00	30.113 
18:25	40.9	40.9	40.9	79	34.9	0	1	292	0.00	30.113 
18:30	40.9	40.9	40.9	79	34.9	0	1	292	0.00	30.113 
18:35	40.8	40.8	40.8	79	34.8	0	1	292	0.00	30.113 
18:40	40.8	40.8	40.8	79	34.8	0	1	292	0.00	30.113 
18:45	40.8	40.8	40.8	79	34.8	0	1	292	0.00	30.113 
18:50	40.8	40.8	40.8	79	34.8	0	1	292	0.00	30.113 
18:55	40.6	40.6	40.6	79	34.6	0	0	---	0.00	30.113 
19:00	40.6	40.6	40.6	79	34.6	0	0	---	0.00	30.115 
19:05	40.6	40.6	40.6	79	34.6	0	1	292	0.00	30.115 
19:10	40.5	40.5	40.5	79	34.5	0	0	---	0.00	30.115 
19:15	40.5	40.5	40.5	79	34.5	0	0	---	0.00	30.116 
19:20	40.3	40.3	40.3	79	34.3	0	0	---	0.00	30.116 
19:25	40.3	40.3	40.3	79	34.3	0	0	---	0.00	30.116 
19:30	40.2	40.2	40.2	79	34.2	0	0	---	0.00	30.114 
19:35	40.2	40.2	40.2	79	34.2	0	0	---	0.00	30.114 
19:40	40.1	40.1	40.1	79	34.1	0	0	---	0.00	30.114 
19:45	39.9	39.9	39.9	79	33.9	0	1	292	0.00	30.110 
19:50	39.8	39.8	39.8	79	33.8	0	0	---	0.00	30.110 
19:55	39.5	39.5	39.5	79	33.5	0	0	---	0.00	30.110 
20:00	39.3	39.3	39.3	79	33.3	0	0	---	0.00	30.108 
20:05	39.1	39.1	39.1	80	33.5	0	0	---	0.00	30.108 
20:10	38.9	38.9	38.9	80	33.3	0	0	---	0.00	30.108 
20:15	38.6	38.6	38.6	80	33.0	0	0	---	0.00	30.103 
20:20	38.3	38.3	38.3	81	33.0	0	0	---	0.00	30.103 
20:25	38.0	38.0	38.0	81	32.7	0	0	---	0.00	30.103 
20:30	37.9	37.9	37.9	82	32.9	0	0	---	0.00	30.103 
20:35	37.6	37.6	37.6	82	32.6	0	0	---	0.00	30.103 
20:40	37.3	37.3	37.3	83	32.6	0	0	---	0.00	30.103 
20:45	37.2	37.2	37.2	83	32.5	0	0	---	0.00	30.099 
20:50	37.0	37.0	37.0	84	32.6	0	0	---	0.00	30.099 
20:55	37.0	37.0	37.0	84	32.6	0	0	---	0.00	30.099 
21:00	36.9	36.9	36.9	84	32.5	0	0	---	0.00	30.104 
21:05	36.8	36.8	36.8	84	32.4	0	0	---	0.00	30.104 
21:10	36.6	36.6	36.6	85	32.5	0	0	---	0.00	30.104 
21:15	36.5	36.5	36.5	85	32.4	0	0	---	0.00	30.104 
21:20	36.5	36.5	36.5	85	32.4	0	0	---	0.00	30.104 
21:25	36.3	36.3	36.3	85	32.2	0	0	---	0.00	30.104 
21:30	36.2	36.2	36.2	86	32.4	0	0	---	0.00	30.113 
21:35	36.0	36.0	36.0	86	32.2	0	0	---	0.00	30.113 
21:40	35.9	35.9	35.9	86	32.1	0	0	---	0.00	30.113 
21:45	35.8	35.8	35.8	86	32.0	0	0	---	0.00	30.110 
21:50	35.8	35.8	35.8	86	32.0	0	0	---	0.00	30.110 
21:55	35.8	35.8	35.8	87	32.3	0	0	---	0.00	30.110 
22:00	35.6	35.6	35.6	87	32.1	0	0	---	0.00	30.113 
22:05	35.6	35.6	35.6	87	32.1	0	0	---	0.00	30.113 
22:10	35.6	35.6	35.6	87	32.1	0	0	---	0.00	30.113 
22:15	35.6	35.6	35.6	87	32.1	0	0	---	0.00	30.118 
22:20	35.6	35.6	35.6	88	32.4	0	0	---	0.00	30.118 
22:25	35.6	35.6	35.6	88	32.4	0	0	---	0.00	30.118 
22:30	35.6	35.6	35.6	88	32.4	0	0	---	0.00	30.120 
22:35	35.5	35.5	35.5	88	32.3	0	0	---	0.00	30.120 
22:40	35.5	35.5	35.5	88	32.3	0	0	---	0.00	30.120 
22:45	35.3	35.3	35.3	88	32.1	0	0	---	0.00	30.119 
22:50	35.3	35.3	35.3	88	32.1	0	0	---	0.00	30.119 
22:55	35.3	35.3	35.3	88	32.1	0	0	---	0.00	30.119 
23:00	35.2	35.2	35.2	88	32.0	0	0	---	0.00	30.119 
23:05	35.0	35.0	35.0	88	31.8	0	0	---	0.00	30.119 
23:10	35.0	35.0	35.0	88	31.8	0	0	---	0.00	30.119 
23:15	34.9	34.9	34.9	88	31.7	0	0	---	0.00	30.123 
23:20	34.9	34.9	34.9	88	31.7	0	0	---	0.00	30.123 
23:25	35.0	35.0	35.0	89	32.1	0	0	---	0.00	30.123 
23:30	35.0	35.0	35.0	89	32.1	0	0	---	0.00	30.126 
23:35	35.0	35.0	35.0	89	32.1	0	0	---	0.00	30.126 
23:40	35.2	35.2	35.2	89	32.3	0	0	---	0.00	30.126 
23:45	35.2	35.2	35.2	89	32.3	0	0	---	0.00	30.132 
23:50	35.2	35.2	35.2	89	32.3	0	0	---	0.00	30.132 
23:55	35.2	35.2	35.2	89	32.3	0	0	---	0.00	30.132 

CoCoRaHS
IN-AL-39
A2 Web Hosting
Creative Commons License
GoDaddy
search engine by freefind advanced

loaded 2018-11-17 14:12:32 • last modified 2010-11-18 10:43:29
Privacy PolicyDisclaimer
• wx.awcolley.com is powered by PmWiki v.2002016 •
• all content (unless otherwise noted) © 2018 A W Colley